Cedar City, Utah
Current Conditions -  °F | °C
As of 1:53 AM on Sunday 23 Nov 2014 (Local Time) from KCDC Reporting Station
Overcast Overcast  
Wind Chill: 34°   Ceiling: 5000
Heat Index: 34°   Visibility: 10mi
Dew Point: 33°   Wind: 3mph
Humidity: 96%   Direction: 230°SW
Pressure: 30"   Gusts: NA
Location:  37.68°N, 113.06°W
Report Text: KCDC 230853Z AUTO 23003KT 10SM BKN050 OVC085 01/01 A3000 RMK AO2 SLP133 60002 T00110006 50000
Loading
Personal Weather Stations






























Interactive Weather Map New forecast layout! Learn more

10-Day Weather Forecast

Advertisements
Track Severe Weather on mobile